createdAt,value
2018-12-02T00:00:56.516Z,2.37
2018-12-02T00:03:25.622Z,2.20
2018-12-02T00:05:55.046Z,2.70
2018-12-02T00:08:24.048Z,2.13
2018-12-02T00:10:53.539Z,1.97
2018-12-02T00:13:22.527Z,1.97
2018-12-02T00:15:51.552Z,2.50
2018-12-02T00:18:20.516Z,2.33
2018-12-02T00:20:49.491Z,2.10
2018-12-02T00:23:18.509Z,2.70
2018-12-02T00:25:47.500Z,2.40
2018-12-02T00:28:16.507Z,2.30
2018-12-02T00:30:45.888Z,2.27
2018-12-02T00:33:14.900Z,2.50
2018-12-02T00:35:43.911Z,2.60
2018-12-02T00:38:12.919Z,2.30
2018-12-02T00:40:41.968Z,2.40
2018-12-02T00:43:11.004Z,2.10
2018-12-02T00:45:39.970Z,2.57
2018-12-02T00:48:09.560Z,2.20
2018-12-02T00:50:38.888Z,2.30
2018-12-02T00:53:09.233Z,2.47
2018-12-02T00:55:43.790Z,2.63
2018-12-02T00:58:13.188Z,2.47
2018-12-02T01:00:42.236Z,2.43
2018-12-02T01:03:11.229Z,2.20
2018-12-02T01:05:40.224Z,2.30
2018-12-02T01:08:09.482Z,2.17
2018-12-02T01:10:38.563Z,2.63
2018-12-02T01:13:09.517Z,2.20
2018-12-02T01:15:39.659Z,2.07
2018-12-02T01:18:09.509Z,2.13
2018-12-02T01:20:39.447Z,2.20
2018-12-02T01:23:08.514Z,2.70
2018-12-02T01:25:37.696Z,2.23
2018-12-02T01:28:07.364Z,2.20
2018-12-02T01:30:36.352Z,2.30
2018-12-02T01:33:05.728Z,3.07
2018-12-02T01:35:34.743Z,2.60
2018-12-02T01:38:03.717Z,2.93
2018-12-02T01:40:32.708Z,3.30
2018-12-02T01:43:01.698Z,2.60
2018-12-02T01:45:30.727Z,2.77
2018-12-02T01:47:59.754Z,2.90
2018-12-02T01:50:28.813Z,2.40
2018-12-02T01:52:58.052Z,2.70
2018-12-02T01:55:27.043Z,2.20
2018-12-02T01:57:56.026Z,2.83
2018-12-02T02:00:27.449Z,2.70
2018-12-02T02:02:57.144Z,2.33
2018-12-02T02:05:26.837Z,2.73
2018-12-02T02:07:55.968Z,2.40
2018-12-02T02:10:26.033Z,2.67
2018-12-02T02:12:55.079Z,2.70
2018-12-02T02:15:24.400Z,2.50
2018-12-02T02:17:53.786Z,2.93
2018-12-02T02:20:23.970Z,2.40
2018-12-02T02:22:53.317Z,3.00
2018-12-02T02:25:24.043Z,2.67
2018-12-02T02:27:55.550Z,2.33
2018-12-02T02:30:26.059Z,3.00
2018-12-02T02:32:55.605Z,2.90
2018-12-02T02:35:25.219Z,2.50
2018-12-02T02:37:55.312Z,2.60
2018-12-02T02:40:29.346Z,2.80
2018-12-02T02:42:58.364Z,2.50
2018-12-02T02:45:27.416Z,2.83
2018-12-02T02:47:56.428Z,3.33
2018-12-02T02:50:26.585Z,3.37
2018-12-02T02:52:57.653Z,3.57
2018-12-02T02:55:27.548Z,2.40
2018-12-02T02:57:56.745Z,2.67
2018-12-02T03:00:26.685Z,3.27
2018-12-02T03:02:56.374Z,2.93
2018-12-02T03:05:25.462Z,2.90
2018-12-02T03:07:54.428Z,2.83
2018-12-02T03:10:23.762Z,2.87
2018-12-02T03:12:53.696Z,2.70
2018-12-02T03:15:23.958Z,2.60
2018-12-02T03:17:52.939Z,2.70
2018-12-02T03:20:22.699Z,2.27
2018-12-02T03:22:52.710Z,2.47
2018-12-02T03:25:22.788Z,2.60
2018-12-02T03:27:52.432Z,2.60
2018-12-02T03:30:22.357Z,2.50
2018-12-02T03:32:51.401Z,2.33
2018-12-02T03:35:25.482Z,2.43
2018-12-02T03:37:55.614Z,2.40
2018-12-02T03:40:26.363Z,2.30
2018-12-02T03:42:55.467Z,2.13
2018-12-02T03:45:25.526Z,2.40
2018-12-02T03:47:54.551Z,2.37
2018-12-02T03:50:24.066Z,1.90
2018-12-02T03:52:53.129Z,2.33
2018-12-02T03:55:22.243Z,2.13
2018-12-02T03:57:51.802Z,2.57
2018-12-02T04:00:22.494Z,2.10
2018-12-02T04:02:52.295Z,2.03
2018-12-02T04:05:22.223Z,2.30
2018-12-02T04:07:51.799Z,2.07
2018-12-02T04:10:21.351Z,2.30
2018-12-02T04:12:51.341Z,2.27
2018-12-02T04:15:23.507Z,2.10
2018-12-02T04:17:52.575Z,2.03
2018-12-02T04:20:21.986Z,2.20
2018-12-02T04:22:51.813Z,1.83
2018-12-02T04:25:22.055Z,2.00
2018-12-02T04:27:51.105Z,1.90
2018-12-02T04:30:20.771Z,2.07
2018-12-02T04:32:51.691Z,2.20
2018-12-02T04:35:25.791Z,1.90
2018-12-02T04:37:55.293Z,2.10
2018-12-02T04:40:24.802Z,1.90
2018-12-02T04:42:53.819Z,2.47
2018-12-02T04:45:23.227Z,1.70
2018-12-02T04:47:52.321Z,1.80
2018-12-02T04:50:23.685Z,1.87
2018-12-02T04:52:52.713Z,1.70
2018-12-02T04:55:22.140Z,1.70
2018-12-02T04:57:51.469Z,1.50
2018-12-02T05:00:21.232Z,2.00
2018-12-02T05:02:51.266Z,1.70
2018-12-02T05:05:21.366Z,1.80
2018-12-02T05:07:50.407Z,1.70
2018-12-02T05:10:20.404Z,1.70
2018-12-02T05:12:49.883Z,1.87
2018-12-02T05:15:19.745Z,1.57
2018-12-02T05:17:48.750Z,2.00
2018-12-02T05:20:20.582Z,2.03
2018-12-02T05:22:49.908Z,3.13
2018-12-02T05:25:19.424Z,3.50
2018-12-02T05:27:48.807Z,2.20
2018-12-02T05:30:22.728Z,1.83
2018-12-02T05:32:53.826Z,2.00
2018-12-02T05:35:22.931Z,2.23
2018-12-02T05:37:51.964Z,2.00
2018-12-02T05:40:22.827Z,1.60
2018-12-02T05:42:53.072Z,1.60
2018-12-02T05:45:22.582Z,1.90
2018-12-02T05:47:51.551Z,1.83
2018-12-02T05:50:22.370Z,1.77
2018-12-02T05:52:54.409Z,1.50
2018-12-02T05:55:25.697Z,1.77
2018-12-02T05:57:54.692Z,1.60
2018-12-02T06:00:23.801Z,1.40
2018-12-02T06:02:52.753Z,1.60
2018-12-02T06:05:21.740Z,1.83
2018-12-02T06:07:50.737Z,1.53
2018-12-02T06:10:22.219Z,1.53
2018-12-02T06:12:51.242Z,1.40
2018-12-02T06:15:21.088Z,1.60
2018-12-02T06:17:50.097Z,1.37
2018-12-02T06:20:21.952Z,1.60
2018-12-02T06:22:51.820Z,1.50
2018-12-02T06:25:20.961Z,1.40
2018-12-02T06:27:50.078Z,1.40
2018-12-02T06:30:21.609Z,1.73
2018-12-02T06:32:56.637Z,1.47
2018-12-02T06:35:25.648Z,1.43
2018-12-02T06:37:55.777Z,1.53
2018-12-02T06:40:26.130Z,1.90
2018-12-02T06:42:55.123Z,1.60
2018-12-02T06:45:24.162Z,1.47
2018-12-02T06:47:53.476Z,1.50
2018-12-02T06:50:24.336Z,1.70
2018-12-02T06:52:54.083Z,2.30
2018-12-02T06:55:29.790Z,1.70
2018-12-02T06:58:08.609Z,1.87
2018-12-02T07:00:48.884Z,1.70
2018-12-02T07:03:28.357Z,1.73
2018-12-02T07:05:57.542Z,2.00
2018-12-02T07:08:26.574Z,1.67
2018-12-02T07:10:55.692Z,1.60
2018-12-02T07:13:24.741Z,3.00
2018-12-02T07:15:54.007Z,1.50
2018-12-02T07:18:24.602Z,1.50
2018-12-02T07:20:53.634Z,1.50
2018-12-02T07:23:22.627Z,1.20
2018-12-02T07:25:51.810Z,1.83
2018-12-02T07:28:20.811Z,1.60
2018-12-02T07:30:49.788Z,1.63
2018-12-02T07:33:18.833Z,2.17
2018-12-02T07:35:48.082Z,2.60
2018-12-02T07:38:24.984Z,2.80
2018-12-02T07:40:55.026Z,1.70
2018-12-02T07:43:24.090Z,1.97
2018-12-02T07:45:53.053Z,2.10
2018-12-02T07:48:22.113Z,3.13
2018-12-02T07:50:51.096Z,2.10
2018-12-02T07:53:20.073Z,2.30
2018-12-02T07:55:49.572Z,2.30
2018-12-02T07:58:18.623Z,2.10
2018-12-02T08:00:48.026Z,2.00
2018-12-02T08:03:16.968Z,1.90
2018-12-02T08:05:45.929Z,2.00
2018-12-02T08:08:14.997Z,2.20
2018-12-02T08:10:43.985Z,2.77
2018-12-02T08:13:13.225Z,3.23
2018-12-02T08:15:42.213Z,2.50
2018-12-02T08:18:11.275Z,2.63
2018-12-02T08:20:40.269Z,1.80
2018-12-02T08:23:09.234Z,1.40
2018-12-02T08:25:38.212Z,1.87
2018-12-02T08:28:07.246Z,1.57
2018-12-02T08:30:36.254Z,1.90
2018-12-02T08:33:05.333Z,1.47
2018-12-02T08:35:34.780Z,1.70
2018-12-02T08:38:08.806Z,1.60
2018-12-02T08:40:38.349Z,1.40
2018-12-02T08:43:08.223Z,1.90
2018-12-02T08:45:38.053Z,1.90
2018-12-02T08:48:06.309Z,1.60
2018-12-02T08:50:35.313Z,1.87
2018-12-02T08:53:04.852Z,1.70
2018-12-02T08:55:33.914Z,2.17
2018-12-02T08:58:02.953Z,2.07
2018-12-02T09:00:31.672Z,1.90
2018-12-02T09:03:01.418Z,1.97
2018-12-02T09:05:30.912Z,2.30
2018-12-02T09:08:00.233Z,4.10
2018-12-02T09:10:29.525Z,2.60
2018-12-02T09:13:00.085Z,2.20
2018-12-02T09:15:28.675Z,2.50
2018-12-02T09:17:57.629Z,2.20
2018-12-02T09:20:34.658Z,2.07
2018-12-02T09:23:03.625Z,2.17
2018-12-02T09:25:32.573Z,2.27
2018-12-02T09:28:02.516Z,3.60
2018-12-02T09:30:32.829Z,2.47
2018-12-02T09:33:01.486Z,2.67
2018-12-02T09:35:30.472Z,1.90
2018-12-02T09:37:59.807Z,2.07
2018-12-02T09:40:28.780Z,2.10
2018-12-02T09:42:57.498Z,2.03
2018-12-02T09:45:27.635Z,1.80
2018-12-02T09:47:58.242Z,2.10
2018-12-02T09:50:27.243Z,2.17
2018-12-02T09:52:55.928Z,2.50
2018-12-02T09:55:31.178Z,2.13
2018-12-02T09:58:00.176Z,1.67
2018-12-02T10:00:33.974Z,2.10
2018-12-02T10:02:57.657Z,2.00
2018-12-02T10:05:26.620Z,3.40
2018-12-02T10:07:55.579Z,2.90
2018-12-02T10:10:24.516Z,2.57
2018-12-02T10:12:57.930Z,1.77
2018-12-02T10:15:26.969Z,1.90
2018-12-02T10:17:55.864Z,2.07
2018-12-02T10:20:24.556Z,2.23
2018-12-02T10:22:53.244Z,1.90
2018-12-02T10:25:21.861Z,1.73
2018-12-02T10:27:50.716Z,1.53
2018-12-02T10:30:20.029Z,1.80
2018-12-02T10:32:49.287Z,1.47
2018-12-02T10:35:17.983Z,1.80
2018-12-02T10:37:47.146Z,1.60
2018-12-02T10:40:20.525Z,1.87
2018-12-02T10:42:50.277Z,1.97
2018-12-02T10:45:21.165Z,1.87
2018-12-02T10:47:51.083Z,2.03
2018-12-02T10:50:22.571Z,1.80
2018-12-02T10:52:51.608Z,1.77
2018-12-02T10:55:28.364Z,2.03
2018-12-02T10:57:57.349Z,1.80
2018-12-02T11:00:31.616Z,1.63
2018-12-02T11:03:00.251Z,1.57
2018-12-02T11:05:28.852Z,1.80
2018-12-02T11:07:57.790Z,1.60
2018-12-02T11:10:26.485Z,1.77
2018-12-02T11:12:55.333Z,1.83
2018-12-02T11:15:24.816Z,1.67
2018-12-02T11:17:56.623Z,2.67
2018-12-02T11:20:25.339Z,2.70
2018-12-02T11:22:54.265Z,2.17
2018-12-02T11:25:23.244Z,3.03
2018-12-02T11:27:52.541Z,2.40
2018-12-02T11:30:21.613Z,2.10
2018-12-02T11:32:50.248Z,2.03
2018-12-02T11:35:19.700Z,1.70
2018-12-02T11:37:48.369Z,1.87
2018-12-02T11:40:19.485Z,2.20
2018-12-02T11:42:49.422Z,1.70
2018-12-02T11:45:18.134Z,1.63
2018-12-02T11:47:48.117Z,1.77
2018-12-02T11:50:20.280Z,1.93
2018-12-02T11:52:48.831Z,1.97
2018-12-02T11:55:19.725Z,2.10
2018-12-02T11:57:48.723Z,1.57
2018-12-02T12:00:34.010Z,1.83
2018-12-02T12:03:02.881Z,2.17
2018-12-02T12:05:31.946Z,1.97
2018-12-02T12:08:00.638Z,1.87
2018-12-02T12:10:29.597Z,0.93
2018-12-02T12:12:58.767Z,1.30
2018-12-02T12:15:29.566Z,1.70
2018-12-02T12:17:58.920Z,1.97
2018-12-02T12:20:28.169Z,1.30
2018-12-02T12:23:03.722Z,1.30
2018-12-02T12:25:32.785Z,1.43
2018-12-02T12:28:01.803Z,1.20
2018-12-02T12:30:31.090Z,1.83
2018-12-02T12:33:00.197Z,1.50
2018-12-02T12:35:29.254Z,1.20
2018-12-02T12:37:58.917Z,1.37
2018-12-02T12:40:30.553Z,1.10
2018-12-02T12:43:07.150Z,1.37
2018-12-02T12:45:36.199Z,1.60
2018-12-02T12:48:05.256Z,1.40
2018-12-02T12:50:34.390Z,1.47
2018-12-02T12:53:03.718Z,1.40
2018-12-02T12:55:32.754Z,1.23
2018-12-02T12:58:01.791Z,1.60
2018-12-02T13:00:31.278Z,1.50
2018-12-02T13:03:00.975Z,1.50
2018-12-02T13:05:31.028Z,1.80
2018-12-02T13:08:00.522Z,1.40
2018-12-02T13:10:29.218Z,1.60
2018-12-02T13:12:57.811Z,1.17
2018-12-02T13:15:26.837Z,1.77
2018-12-02T13:17:58.030Z,1.47
2018-12-02T13:20:28.525Z,1.77
2018-12-02T13:22:57.939Z,3.03
2018-12-02T13:25:26.954Z,3.33
2018-12-02T13:27:56.359Z,4.10
2018-12-02T13:30:25.038Z,5.27
2018-12-02T13:32:54.242Z,3.33
2018-12-02T13:35:23.756Z,2.20
2018-12-02T13:37:52.508Z,1.63
2018-12-02T13:40:21.656Z,1.90
2018-12-02T13:42:53.131Z,1.97
2018-12-02T13:45:22.544Z,1.90
2018-12-02T13:47:51.494Z,1.87
2018-12-02T13:50:21.126Z,1.63
2018-12-02T13:52:50.874Z,2.33
2018-12-02T13:55:20.155Z,1.60
2018-12-02T13:57:49.411Z,1.40
2018-12-02T14:00:18.727Z,1.57
2018-12-02T14:02:48.074Z,1.90
2018-12-02T14:05:16.988Z,2.13
2018-12-02T14:07:46.025Z,2.17
2018-12-02T14:10:15.252Z,1.60
2018-12-02T14:12:49.294Z,1.53
2018-12-02T14:15:19.781Z,0.90
2018-12-02T14:17:49.116Z,0.93
2018-12-02T14:20:18.029Z,0.83
2018-12-02T14:22:46.768Z,1.03
2018-12-02T14:25:16.274Z,0.70
2018-12-02T14:27:45.806Z,0.60
2018-12-02T14:30:17.200Z,0.80
2018-12-02T14:32:46.118Z,1.00
2018-12-02T14:35:15.223Z,1.23
2018-12-02T14:37:44.561Z,1.00
2018-12-02T14:40:14.022Z,0.77
2018-12-02T14:42:44.218Z,0.80
2018-12-02T14:45:15.580Z,0.70
2018-12-02T14:47:44.629Z,0.87
2018-12-02T14:50:19.475Z,0.83
2018-12-02T14:52:48.992Z,0.67
2018-12-02T14:55:18.728Z,0.80
2018-12-02T14:57:47.800Z,0.90
2018-12-02T15:00:18.276Z,0.60
2018-12-02T15:02:47.351Z,0.60
2018-12-02T15:05:17.234Z,0.57
2018-12-02T15:07:46.255Z,0.73
2018-12-02T15:10:16.509Z,0.93
2018-12-02T15:12:46.294Z,0.87
2018-12-02T15:15:16.506Z,0.80
2018-12-02T15:17:47.803Z,1.00
2018-12-02T15:20:17.252Z,1.00
2018-12-02T15:22:45.855Z,1.30
2018-12-02T15:25:14.540Z,0.63
2018-12-02T15:27:44.236Z,0.70
2018-12-02T15:30:14.285Z,0.43
2018-12-02T15:32:44.485Z,0.77
2018-12-02T15:35:14.017Z,0.73
2018-12-02T15:37:43.061Z,0.75
2018-12-02T15:40:13.582Z,0.80
2018-12-02T15:42:43.136Z,0.90
2018-12-02T15:45:13.353Z,0.70
2018-12-02T15:47:41.004Z,1.07
2018-12-02T15:50:12.749Z,1.20
2018-12-02T15:52:41.750Z,0.70
2018-12-02T15:55:11.277Z,0.60
2018-12-02T15:57:39.978Z,0.50
2018-12-02T16:00:41.214Z,0.67
2018-12-02T16:03:09.781Z,0.60
2018-12-02T16:05:38.701Z,0.80
2018-12-02T16:08:08.301Z,0.70
2018-12-02T16:10:37.869Z,0.80
2018-12-02T16:13:08.285Z,1.40
2018-12-02T16:15:37.292Z,1.60
2018-12-02T16:18:08.136Z,1.30
2018-12-02T16:20:40.349Z,0.90
2018-12-02T16:23:09.477Z,1.13
2018-12-02T16:25:38.481Z,1.00
2018-12-02T16:28:08.024Z,1.20
2018-12-02T16:30:37.658Z,1.80
2018-12-02T16:33:07.340Z,1.00
2018-12-02T16:35:36.255Z,1.70
2018-12-02T16:38:05.870Z,1.50
2018-12-02T16:40:34.484Z,0.70
2018-12-02T16:43:03.511Z,0.90
2018-12-02T16:45:33.037Z,0.50
2018-12-02T16:48:02.336Z,1.00
2018-12-02T16:50:32.721Z,0.83
2018-12-02T16:53:07.946Z,0.80
2018-12-02T16:55:37.689Z,0.70
2018-12-02T16:59:13.008Z,0.70
2018-12-02T17:01:44.499Z,0.90
2018-12-02T17:04:13.219Z,0.60
2018-12-02T17:06:42.810Z,0.73
2018-12-02T17:09:12.172Z,0.80
2018-12-02T17:11:43.112Z,0.90
2018-12-02T17:14:12.172Z,0.87
2018-12-02T17:16:40.865Z,0.90
2018-12-02T17:19:09.922Z,1.00
2018-12-02T17:21:39.124Z,0.80
2018-12-02T17:24:09.975Z,0.70
2018-12-02T17:26:40.007Z,0.70
2018-12-02T17:29:12.260Z,0.70
2018-12-02T17:31:53.458Z,0.63
2018-12-02T17:34:22.135Z,0.90
2018-12-02T17:36:50.839Z,0.97
2018-12-02T17:39:22.005Z,1.20
2018-12-02T17:41:55.677Z,0.90
2018-12-02T17:44:26.730Z,1.10
2018-12-02T17:46:55.601Z,0.80
2018-12-02T17:49:24.407Z,1.00
2018-12-02T17:51:54.175Z,1.00
2018-12-02T17:54:23.323Z,0.90
2018-12-02T17:56:52.004Z,0.70
2018-12-02T17:59:20.974Z,0.83
2018-12-02T18:01:50.098Z,0.80
2018-12-02T18:04:19.690Z,0.73
2018-12-02T18:06:49.076Z,1.03
2018-12-02T18:09:18.207Z,0.90
2018-12-02T18:11:47.244Z,1.00
2018-12-02T18:14:16.437Z,0.73
2018-12-02T18:16:50.101Z,0.90
2018-12-02T18:19:14.915Z,0.83
2018-12-02T18:21:43.904Z,0.90
2018-12-02T18:24:13.074Z,0.70
2018-12-02T18:26:42.305Z,0.80
2018-12-02T18:29:11.236Z,0.90
2018-12-02T18:31:40.286Z,1.03
2018-12-02T18:34:08.942Z,0.90
2018-12-02T18:36:38.074Z,0.80
2018-12-02T18:39:09.303Z,1.37
2018-12-02T18:41:39.118Z,1.20
2018-12-02T18:44:08.700Z,0.80
2018-12-02T18:46:37.954Z,1.17
2018-12-02T18:49:06.952Z,0.90
2018-12-02T18:51:35.657Z,0.53
2018-12-02T18:54:04.298Z,0.70
2018-12-02T18:56:32.901Z,0.80
2018-12-02T18:59:01.472Z,0.90
2018-12-02T19:01:30.049Z,0.90
2018-12-02T19:03:59.212Z,0.50
2018-12-02T19:06:28.336Z,0.70
2018-12-02T19:08:56.826Z,0.60
2018-12-02T19:11:25.844Z,0.60
2018-12-02T19:13:54.516Z,0.70
2018-12-02T19:16:23.890Z,0.70
2018-12-02T19:18:52.995Z,0.90
2018-12-02T19:21:25.162Z,0.70
2018-12-02T19:23:54.509Z,0.87
2018-12-02T19:26:23.477Z,0.60
2018-12-02T19:28:52.288Z,0.50
2018-12-02T19:31:24.256Z,0.60
2018-12-02T19:33:55.430Z,0.70
2018-12-02T19:36:48.533Z,0.53
2018-12-02T19:39:17.183Z,0.70
2018-12-02T19:41:46.174Z,1.07
2018-12-02T19:44:15.157Z,0.60
2018-12-02T19:46:44.148Z,1.07
2018-12-02T19:49:13.742Z,0.90
2018-12-02T19:51:42.717Z,0.70
2018-12-02T19:54:12.280Z,0.60
2018-12-02T19:56:41.273Z,0.70
2018-12-02T19:59:10.299Z,0.70
2018-12-02T20:01:39.408Z,0.70
2018-12-02T20:04:08.153Z,0.60
2018-12-02T20:06:37.448Z,0.90
2018-12-02T20:09:08.620Z,1.03
2018-12-02T20:11:37.563Z,1.10
2018-12-02T20:14:07.650Z,1.17
2018-12-02T20:16:36.314Z,1.20
2018-12-02T20:19:10.683Z,1.20
2018-12-02T20:21:39.630Z,1.00
2018-12-02T20:24:13.760Z,1.30
2018-12-02T20:26:42.322Z,0.90
2018-12-02T20:29:11.518Z,2.37
2018-12-02T20:31:40.483Z,0.80
2018-12-02T20:34:09.913Z,0.87
2018-12-02T20:36:39.202Z,0.60
2018-12-02T20:39:10.644Z,0.90
2018-12-02T20:41:39.651Z,0.63
2018-12-02T20:44:08.330Z,0.80
2018-12-02T20:46:36.902Z,0.50
2018-12-02T20:49:05.589Z,0.80
2018-12-02T20:51:34.537Z,0.53
2018-12-02T20:54:03.180Z,0.57
2018-12-02T20:56:32.125Z,0.63
2018-12-02T20:59:00.813Z,0.57
2018-12-02T21:01:30.634Z,0.70
2018-12-02T21:03:59.678Z,0.60
2018-12-02T21:06:28.747Z,0.80
2018-12-02T21:08:58.356Z,0.90
2018-12-02T21:11:27.490Z,0.90
2018-12-02T21:13:56.464Z,0.77
2018-12-02T21:16:25.136Z,0.80
2018-12-02T21:18:54.118Z,0.80
2018-12-02T21:21:22.784Z,0.73
2018-12-02T21:23:52.077Z,0.80
2018-12-02T21:26:20.706Z,0.70
2018-12-02T21:28:49.270Z,0.63
2018-12-02T21:31:18.585Z,0.80
2018-12-02T21:33:47.598Z,0.80
2018-12-02T21:36:16.277Z,0.60
2018-12-02T21:38:44.856Z,0.80
2018-12-02T21:41:13.765Z,0.57
2018-12-02T21:43:42.769Z,1.30
2018-12-02T21:46:11.624Z,1.00
2018-12-02T21:48:40.629Z,0.80
2018-12-02T21:51:09.657Z,0.80
2018-12-02T21:53:38.636Z,0.70
2018-12-02T21:56:07.847Z,0.67
2018-12-02T21:58:36.440Z,0.60
2018-12-02T22:01:10.548Z,0.57
2018-12-02T22:03:39.174Z,0.70
2018-12-02T22:06:07.845Z,0.70
2018-12-02T22:08:36.789Z,0.73
2018-12-02T22:11:06.015Z,0.70
2018-12-02T22:13:34.782Z,0.53
2018-12-02T22:16:03.754Z,0.70
2018-12-02T22:18:32.868Z,1.00
2018-12-02T22:21:02.219Z,0.80
2018-12-02T22:23:30.901Z,0.90
2018-12-02T22:25:59.799Z,1.10
2018-12-02T22:28:28.872Z,0.60
2018-12-02T22:30:58.063Z,0.63
2018-12-02T22:33:26.724Z,1.00
2018-12-02T22:35:55.978Z,0.80
2018-12-02T22:38:24.686Z,0.70
2018-12-02T22:40:53.453Z,0.90
2018-12-02T22:43:22.025Z,0.50
2018-12-02T22:45:51.642Z,0.83
2018-12-02T22:48:20.985Z,0.73
2018-12-02T22:50:50.213Z,0.70
2018-12-02T22:53:19.731Z,0.80
2018-12-02T22:55:48.399Z,0.50
2018-12-02T22:58:17.316Z,0.80
2018-12-02T23:00:52.301Z,0.87
2018-12-02T23:03:20.989Z,0.50
2018-12-02T23:05:50.253Z,0.50
2018-12-02T23:08:19.326Z,0.73
2018-12-02T23:10:47.995Z,1.00
2018-12-02T23:13:16.622Z,0.80
2018-12-02T23:15:45.543Z,0.93
2018-12-02T23:18:14.585Z,1.10
2018-12-02T23:20:43.533Z,0.80
2018-12-02T23:23:12.534Z,0.90
2018-12-02T23:25:41.513Z,0.70
2018-12-02T23:28:10.841Z,0.80
2018-12-02T23:30:39.855Z,0.53
2018-12-02T23:33:09.122Z,0.50
2018-12-02T23:35:37.857Z,0.63
2018-12-02T23:38:06.424Z,0.63
2018-12-02T23:40:35.004Z,0.60
2018-12-02T23:43:03.592Z,0.30
2018-12-02T23:45:32.931Z,0.60
2018-12-02T23:48:01.928Z,0.50
2018-12-02T23:50:31.840Z,0.60
2018-12-02T23:53:01.244Z,0.50
2018-12-02T23:55:29.897Z,0.47
2018-12-02T23:57:58.865Z,0.40
